sensor_id;sensor_type;location;lat;lon;timestamp;P1;durP1;ratioP1;P2;durP2;ratioP2
78895;SDS011;68284;59.124;37.910;2023-07-13T00:01:58;22.08;;;7.53;;
78895;SDS011;68284;59.124;37.910;2023-07-13T00:04:25;12.75;;;7.07;;
78895;SDS011;68284;59.124;37.910;2023-07-13T00:06:51;23.42;;;11.48;;
78895;SDS011;68284;59.124;37.910;2023-07-13T00:09:18;12.20;;;7.22;;
78895;SDS011;68284;59.124;37.910;2023-07-13T00:11:45;14.93;;;7.38;;
78895;SDS011;68284;59.124;37.910;2023-07-13T00:14:16;15.95;;;6.93;;
78895;SDS011;68284;59.124;37.910;2023-07-13T00:19:10;28.40;;;14.18;;
78895;SDS011;68284;59.124;37.910;2023-07-13T00:21:40;20.52;;;11.23;;
78895;SDS011;68284;59.124;37.910;2023-07-13T00:24:11;26.85;;;13.93;;
78895;SDS011;68284;59.124;37.910;2023-07-13T00:26:40;21.23;;;9.68;;
78895;SDS011;68284;59.124;37.910;2023-07-13T00:29:11;23.80;;;9.50;;
78895;SDS011;68284;59.124;37.910;2023-07-13T00:31:38;25.05;;;13.55;;
78895;SDS011;68284;59.124;37.910;2023-07-13T00:34:04;20.63;;;9.98;;
78895;SDS011;68284;59.124;37.910;2023-07-13T00:36:30;21.77;;;10.10;;
78895;SDS011;68284;59.124;37.910;2023-07-13T00:38:57;15.30;;;6.65;;
78895;SDS011;68284;59.124;37.910;2023-07-13T00:41:24;10.88;;;4.88;;
78895;SDS011;68284;59.124;37.910;2023-07-13T00:43:50;12.27;;;5.88;;
78895;SDS011;68284;59.124;37.910;2023-07-13T00:48:45;17.02;;;8.48;;
78895;SDS011;68284;59.124;37.910;2023-07-13T00:51:16;15.90;;;8.20;;
78895;SDS011;68284;59.124;37.910;2023-07-13T00:53:47;10.00;;;6.65;;
78895;SDS011;68284;59.124;37.910;2023-07-13T00:56:15;10.13;;;5.07;;
78895;SDS011;68284;59.124;37.910;2023-07-13T00:58:41;9.70;;;4.10;;
78895;SDS011;68284;59.124;37.910;2023-07-13T01:01:08;8.52;;;4.40;;
78895;SDS011;68284;59.124;37.910;2023-07-13T01:06:01;8.85;;;3.28;;
78895;SDS011;68284;59.124;37.910;2023-07-13T01:08:27;9.88;;;3.90;;
78895;SDS011;68284;59.124;37.910;2023-07-13T01:10:54;11.60;;;4.97;;
78895;SDS011;68284;59.124;37.910;2023-07-13T01:13:22;10.27;;;4.65;;
78895;SDS011;68284;59.124;37.910;2023-07-13T01:15:49;10.40;;;3.78;;
78895;SDS011;68284;59.124;37.910;2023-07-13T01:18:18;9.50;;;4.25;;
78895;SDS011;68284;59.124;37.910;2023-07-13T01:20:50;8.07;;;3.38;;
78895;SDS011;68284;59.124;37.910;2023-07-13T01:23:27;9.38;;;4.60;;
78895;SDS011;68284;59.124;37.910;2023-07-13T01:25:55;8.25;;;4.88;;
78895;SDS011;68284;59.124;37.910;2023-07-13T01:28:22;9.82;;;5.30;;
78895;SDS011;68284;59.124;37.910;2023-07-13T01:30:53;8.55;;;4.57;;
78895;SDS011;68284;59.124;37.910;2023-07-13T01:33:22;9.70;;;5.75;;
78895;SDS011;68284;59.124;37.910;2023-07-13T01:35:49;8.68;;;4.10;;
78895;SDS011;68284;59.124;37.910;2023-07-13T01:38:16;9.57;;;5.28;;
78895;SDS011;68284;59.124;37.910;2023-07-13T01:40:44;9.25;;;4.55;;
78895;SDS011;68284;59.124;37.910;2023-07-13T01:43:10;10.63;;;5.35;;
78895;SDS011;68284;59.124;37.910;2023-07-13T01:45:36;11.52;;;5.45;;
78895;SDS011;68284;59.124;37.910;2023-07-13T01:48:03;9.68;;;5.55;;
78895;SDS011;68284;59.124;37.910;2023-07-13T01:50:32;13.40;;;5.97;;
78895;SDS011;68284;59.124;37.910;2023-07-13T01:52:59;14.70;;;6.78;;
78895;SDS011;68284;59.124;37.910;2023-07-13T01:55:25;10.18;;;5.57;;
78895;SDS011;68284;59.124;37.910;2023-07-13T02:00:17;10.85;;;5.90;;
78895;SDS011;68284;59.124;37.910;2023-07-13T02:02:47;16.58;;;5.85;;
78895;SDS011;68284;59.124;37.910;2023-07-13T02:05:13;9.05;;;5.13;;
78895;SDS011;68284;59.124;37.910;2023-07-13T02:07:40;9.20;;;6.20;;
78895;SDS011;68284;59.124;37.910;2023-07-13T02:10:08;12.57;;;7.35;;
78895;SDS011;68284;59.124;37.910;2023-07-13T02:12:35;8.65;;;5.88;;
78895;SDS011;68284;59.124;37.910;2023-07-13T02:15:03;9.88;;;6.20;;
78895;SDS011;68284;59.124;37.910;2023-07-13T02:17:30;8.27;;;5.97;;
78895;SDS011;68284;59.124;37.910;2023-07-13T02:19:58;10.40;;;7.10;;
78895;SDS011;68284;59.124;37.910;2023-07-13T02:24:50;7.85;;;4.53;;
78895;SDS011;68284;59.124;37.910;2023-07-13T02:27:18;8.95;;;6.53;;
78895;SDS011;68284;59.124;37.910;2023-07-13T02:29:44;9.48;;;5.22;;
78895;SDS011;68284;59.124;37.910;2023-07-13T02:34:37;4.05;;;2.75;;
78895;SDS011;68284;59.124;37.910;2023-07-13T02:37:04;7.45;;;2.40;;
78895;SDS011;68284;59.124;37.910;2023-07-13T02:39:30;4.70;;;3.00;;
78895;SDS011;68284;59.124;37.910;2023-07-13T02:41:59;7.80;;;2.60;;
78895;SDS011;68284;59.124;37.910;2023-07-13T02:44:26;8.48;;;3.83;;
78895;SDS011;68284;59.124;37.910;2023-07-13T02:46:52;7.35;;;4.18;;
78895;SDS011;68284;59.124;37.910;2023-07-13T02:51:44;5.43;;;4.18;;
78895;SDS011;68284;59.124;37.910;2023-07-13T02:56:39;6.22;;;4.00;;
78895;SDS011;68284;59.124;37.910;2023-07-13T02:59:06;8.70;;;5.32;;
78895;SDS011;68284;59.124;37.910;2023-07-13T03:04:01;7.55;;;5.20;;
78895;SDS011;68284;59.124;37.910;2023-07-13T03:06:31;11.10;;;5.00;;
78895;SDS011;68284;59.124;37.910;2023-07-13T03:08:58;6.72;;;4.10;;
78895;SDS011;68284;59.124;37.910;2023-07-13T03:11:26;8.82;;;3.78;;
78895;SDS011;68284;59.124;37.910;2023-07-13T03:14:01;14.32;;;2.90;;
78895;SDS011;68284;59.124;37.910;2023-07-13T03:16:30;20.52;;;2.80;;
78895;SDS011;68284;59.124;37.910;2023-07-13T03:21:23;6.95;;;2.50;;
78895;SDS011;68284;59.124;37.910;2023-07-13T03:23:50;6.95;;;2.38;;
78895;SDS011;68284;59.124;37.910;2023-07-13T03:28:45;8.88;;;3.30;;
78895;SDS011;68284;59.124;37.910;2023-07-13T03:31:18;7.53;;;2.70;;
78895;SDS011;68284;59.124;37.910;2023-07-13T03:33:47;8.60;;;4.25;;
78895;SDS011;68284;59.124;37.910;2023-07-13T03:36:16;11.00;;;5.10;;
78895;SDS011;68284;59.124;37.910;2023-07-13T03:38:49;7.80;;;4.53;;
78895;SDS011;68284;59.124;37.910;2023-07-13T03:41:18;7.20;;;1.92;;
78895;SDS011;68284;59.124;37.910;2023-07-13T03:43:47;4.50;;;1.55;;
78895;SDS011;68284;59.124;37.910;2023-07-13T03:46:18;7.75;;;2.63;;
78895;SDS011;68284;59.124;37.910;2023-07-13T03:48:45;10.50;;;1.65;;
78895;SDS011;68284;59.124;37.910;2023-07-13T03:51:13;6.45;;;1.73;;
78895;SDS011;68284;59.124;37.910;2023-07-13T03:53:41;6.30;;;2.17;;
78895;SDS011;68284;59.124;37.910;2023-07-13T03:56:10;10.35;;;2.78;;
78895;SDS011;68284;59.124;37.910;2023-07-13T03:58:38;11.55;;;3.05;;
78895;SDS011;68284;59.124;37.910;2023-07-13T04:01:13;14.90;;;2.10;;
78895;SDS011;68284;59.124;37.910;2023-07-13T04:03:41;7.78;;;1.60;;
78895;SDS011;68284;59.124;37.910;2023-07-13T04:06:12;5.50;;;1.55;;
78895;SDS011;68284;59.124;37.910;2023-07-13T04:08:47;5.72;;;1.88;;
78895;SDS011;68284;59.124;37.910;2023-07-13T04:11:16;8.57;;;1.80;;
78895;SDS011;68284;59.124;37.910;2023-07-13T04:13:43;12.45;;;2.60;;
78895;SDS011;68284;59.124;37.910;2023-07-13T04:16:11;8.00;;;2.42;;
78895;SDS011;68284;59.124;37.910;2023-07-13T04:18:38;9.88;;;1.23;;
78895;SDS011;68284;59.124;37.910;2023-07-13T04:21:05;8.57;;;2.83;;
78895;SDS011;68284;59.124;37.910;2023-07-13T04:23:31;6.05;;;2.00;;
78895;SDS011;68284;59.124;37.910;2023-07-13T04:25:57;5.82;;;2.22;;
78895;SDS011;68284;59.124;37.910;2023-07-13T04:28:24;7.55;;;2.00;;
78895;SDS011;68284;59.124;37.910;2023-07-13T04:30:51;6.45;;;1.90;;
78895;SDS011;68284;59.124;37.910;2023-07-13T04:33:18;7.57;;;2.75;;
78895;SDS011;68284;59.124;37.910;2023-07-13T04:35:48;10.88;;;3.72;;
78895;SDS011;68284;59.124;37.910;2023-07-13T04:38:15;6.32;;;2.40;;
78895;SDS011;68284;59.124;37.910;2023-07-13T04:40:44;6.13;;;4.00;;
78895;SDS011;68284;59.124;37.910;2023-07-13T04:43:11;7.85;;;4.60;;
78895;SDS011;68284;59.124;37.910;2023-07-13T04:45:37;8.30;;;3.80;;
78895;SDS011;68284;59.124;37.910;2023-07-13T04:48:03;8.82;;;4.68;;
78895;SDS011;68284;59.124;37.910;2023-07-13T04:50:30;10.70;;;4.78;;
78895;SDS011;68284;59.124;37.910;2023-07-13T04:52:56;5.45;;;2.97;;
78895;SDS011;68284;59.124;37.910;2023-07-13T04:55:23;4.82;;;3.42;;
78895;SDS011;68284;59.124;37.910;2023-07-13T04:57:50;12.88;;;8.05;;
78895;SDS011;68284;59.124;37.910;2023-07-13T05:00:17;12.40;;;7.72;;
78895;SDS011;68284;59.124;37.910;2023-07-13T05:02:44;12.43;;;6.57;;
78895;SDS011;68284;59.124;37.910;2023-07-13T05:05:13;8.48;;;4.88;;
78895;SDS011;68284;59.124;37.910;2023-07-13T05:10:06;10.32;;;6.65;;
78895;SDS011;68284;59.124;37.910;2023-07-13T05:12:33;9.50;;;7.07;;
78895;SDS011;68284;59.124;37.910;2023-07-13T05:15:01;14.52;;;9.27;;
78895;SDS011;68284;59.124;37.910;2023-07-13T05:17:29;12.05;;;7.72;;
78895;SDS011;68284;59.124;37.910;2023-07-13T05:19:55;11.77;;;7.32;;
78895;SDS011;68284;59.124;37.910;2023-07-13T05:22:21;14.63;;;7.85;;
78895;SDS011;68284;59.124;37.910;2023-07-13T05:27:14;9.98;;;7.40;;
78895;SDS011;68284;59.124;37.910;2023-07-13T05:29:40;15.55;;;8.45;;
78895;SDS011;68284;59.124;37.910;2023-07-13T05:34:32;13.55;;;6.45;;
78895;SDS011;68284;59.124;37.910;2023-07-13T05:39:25;10.27;;;4.05;;
78895;SDS011;68284;59.124;37.910;2023-07-13T05:41:53;12.68;;;7.47;;
78895;SDS011;68284;59.124;37.910;2023-07-13T05:46:45;10.30;;;6.95;;
78895;SDS011;68284;59.124;37.910;2023-07-13T05:49:11;10.18;;;5.57;;
78895;SDS011;68284;59.124;37.910;2023-07-13T05:51:38;6.30;;;2.90;;
78895;SDS011;68284;59.124;37.910;2023-07-13T05:56:30;9.18;;;3.58;;
78895;SDS011;68284;59.124;37.910;2023-07-13T05:58:56;13.15;;;2.70;;
78895;SDS011;68284;59.124;37.910;2023-07-13T06:03:49;5.88;;;2.80;;
78895;SDS011;68284;59.124;37.910;2023-07-13T06:06:16;15.35;;;3.22;;
78895;SDS011;68284;59.124;37.910;2023-07-13T06:08:43;9.65;;;2.75;;
78895;SDS011;68284;59.124;37.910;2023-07-13T06:13:39;7.07;;;2.22;;
78895;SDS011;68284;59.124;37.910;2023-07-13T06:18:32;12.73;;;3.13;;
78895;SDS011;68284;59.124;37.910;2023-07-13T06:20:59;11.65;;;2.15;;
78895;SDS011;68284;59.124;37.910;2023-07-13T06:23:25;6.35;;;1.77;;
78895;SDS011;68284;59.124;37.910;2023-07-13T06:25:52;15.35;;;1.90;;
78895;SDS011;68284;59.124;37.910;2023-07-13T06:30:44;16.02;;;2.33;;
78895;SDS011;68284;59.124;37.910;2023-07-13T06:33:10;7.80;;;2.45;;
78895;SDS011;68284;59.124;37.910;2023-07-13T06:35:37;9.75;;;2.13;;
78895;SDS011;68284;59.124;37.910;2023-07-13T06:38:03;5.07;;;1.98;;
78895;SDS011;68284;59.124;37.910;2023-07-13T06:40:30;10.95;;;2.65;;
78895;SDS011;68284;59.124;37.910;2023-07-13T06:42:56;10.65;;;3.22;;
78895;SDS011;68284;59.124;37.910;2023-07-13T06:45:24;14.93;;;2.78;;
78895;SDS011;68284;59.124;37.910;2023-07-13T06:47:50;8.23;;;3.47;;
78895;SDS011;68284;59.124;37.910;2023-07-13T06:50:16;22.08;;;2.00;;
78895;SDS011;68284;59.124;37.910;2023-07-13T06:55:08;5.22;;;2.33;;
78895;SDS011;68284;59.124;37.910;2023-07-13T07:00:01;10.77;;;3.28;;
78895;SDS011;68284;59.124;37.910;2023-07-13T07:02:27;10.48;;;2.20;;
78895;SDS011;68284;59.124;37.910;2023-07-13T07:04:54;11.57;;;1.85;;
78895;SDS011;68284;59.124;37.910;2023-07-13T07:09:49;10.25;;;2.00;;
78895;SDS011;68284;59.124;37.910;2023-07-13T07:12:15;8.38;;;2.90;;
78895;SDS011;68284;59.124;37.910;2023-07-13T07:14:41;4.10;;;2.22;;
78895;SDS011;68284;59.124;37.910;2023-07-13T07:17:07;4.93;;;2.50;;
78895;SDS011;68284;59.124;37.910;2023-07-13T07:22:00;8.43;;;2.55;;
78895;SDS011;68284;59.124;37.910;2023-07-13T07:26:53;9.10;;;2.22;;
78895;SDS011;68284;59.124;37.910;2023-07-13T07:29:19;8.00;;;2.97;;
78895;SDS011;68284;59.124;37.910;2023-07-13T07:31:48;13.02;;;4.50;;
78895;SDS011;68284;59.124;37.910;2023-07-13T07:34:14;11.88;;;1.95;;
78895;SDS011;68284;59.124;37.910;2023-07-13T07:36:40;7.30;;;2.55;;
78895;SDS011;68284;59.124;37.910;2023-07-13T07:39:06;7.30;;;2.38;;
78895;SDS011;68284;59.124;37.910;2023-07-13T07:43:58;10.52;;;3.55;;
78895;SDS011;68284;59.124;37.910;2023-07-13T07:48:51;12.40;;;4.15;;
78895;SDS011;68284;59.124;37.910;2023-07-13T07:53:43;12.65;;;2.00;;
78895;SDS011;68284;59.124;37.910;2023-07-13T07:56:11;11.35;;;2.05;;
78895;SDS011;68284;59.124;37.910;2023-07-13T07:58:37;9.63;;;2.22;;
78895;SDS011;68284;59.124;37.910;2023-07-13T08:01:07;6.88;;;1.92;;
78895;SDS011;68284;59.124;37.910;2023-07-13T08:03:34;16.17;;;4.30;;
78895;SDS011;68284;59.124;37.910;2023-07-13T08:06:00;7.07;;;3.40;;
78895;SDS011;68284;59.124;37.910;2023-07-13T08:08:27;7.82;;;4.28;;
78895;SDS011;68284;59.124;37.910;2023-07-13T08:13:19;11.88;;;3.70;;
78895;SDS011;68284;59.124;37.910;2023-07-13T08:15:46;6.68;;;3.25;;
78895;SDS011;68284;59.124;37.910;2023-07-13T08:18:12;6.28;;;3.05;;
78895;SDS011;68284;59.124;37.910;2023-07-13T08:20:39;8.15;;;4.13;;
78895;SDS011;68284;59.124;37.910;2023-07-13T08:23:06;12.23;;;3.20;;
78895;SDS011;68284;59.124;37.910;2023-07-13T08:25:33;8.35;;;2.65;;
78895;SDS011;68284;59.124;37.910;2023-07-13T08:27:59;11.98;;;2.83;;
78895;SDS011;68284;59.124;37.910;2023-07-13T08:30:26;9.30;;;2.67;;
78895;SDS011;68284;59.124;37.910;2023-07-13T08:35:18;13.95;;;4.28;;
78895;SDS011;68284;59.124;37.910;2023-07-13T08:40:11;12.15;;;3.30;;
78895;SDS011;68284;59.124;37.910;2023-07-13T08:42:40;12.50;;;3.15;;
78895;SDS011;68284;59.124;37.910;2023-07-13T08:51:33;8.23;;;3.83;;
78895;SDS011;68284;59.124;37.910;2023-07-13T08:53:58;12.73;;;3.92;;
78895;SDS011;68284;59.124;37.910;2023-07-13T08:56:29;12.30;;;3.90;;
78895;SDS011;68284;59.124;37.910;2023-07-13T08:59:04;8.98;;;3.83;;
78895;SDS011;68284;59.124;37.910;2023-07-13T09:07:28;8.75;;;3.85;;
78895;SDS011;68284;59.124;37.910;2023-07-13T09:10:14;15.02;;;4.88;;
78895;SDS011;68284;59.124;37.910;2023-07-13T09:12:46;16.38;;;4.00;;
78895;SDS011;68284;59.124;37.910;2023-07-13T09:17:51;7.13;;;2.83;;
78895;SDS011;68284;59.124;37.910;2023-07-13T09:20:23;11.75;;;3.20;;
78895;SDS011;68284;59.124;37.910;2023-07-13T09:22:54;4.65;;;2.30;;
78895;SDS011;68284;59.124;37.910;2023-07-13T09:25:29;7.38;;;2.92;;
78895;SDS011;68284;59.124;37.910;2023-07-13T09:33:22;12.77;;;3.42;;
78895;SDS011;68284;59.124;37.910;2023-07-13T09:38:16;11.23;;;2.40;;
78895;SDS011;68284;59.124;37.910;2023-07-13T09:41:05;3.25;;;2.08;;
78895;SDS011;68284;59.124;37.910;2023-07-13T09:44:08;3.33;;;1.48;;
78895;SDS011;68284;59.124;37.910;2023-07-13T09:46:38;3.85;;;1.20;;
78895;SDS011;68284;59.124;37.910;2023-07-13T09:49:07;3.65;;;1.65;;
78895;SDS011;68284;59.124;37.910;2023-07-13T09:51:36;10.65;;;2.95;;
78895;SDS011;68284;59.124;37.910;2023-07-13T09:54:04;9.30;;;2.67;;
78895;SDS011;68284;59.124;37.910;2023-07-13T09:56:30;9.48;;;2.22;;
78895;SDS011;68284;59.124;37.910;2023-07-13T09:58:58;16.23;;;4.00;;
78895;SDS011;68284;59.124;37.910;2023-07-13T10:01:32;15.18;;;4.40;;
78895;SDS011;68284;59.124;37.910;2023-07-13T10:04:00;13.88;;;3.85;;
78895;SDS011;68284;59.124;37.910;2023-07-13T10:06:27;11.07;;;4.28;;
78895;SDS011;68284;59.124;37.910;2023-07-13T10:08:55;10.55;;;3.90;;
78895;SDS011;68284;59.124;37.910;2023-07-13T10:11:23;6.82;;;2.50;;
78895;SDS011;68284;59.124;37.910;2023-07-13T10:13:57;7.13;;;3.35;;
78895;SDS011;68284;59.124;37.910;2023-07-13T10:16:26;9.88;;;4.28;;
78895;SDS011;68284;59.124;37.910;2023-07-13T10:18:59;11.20;;;4.10;;
78895;SDS011;68284;59.124;37.910;2023-07-13T10:21:38;9.73;;;3.88;;
78895;SDS011;68284;59.124;37.910;2023-07-13T10:24:15;9.48;;;5.85;;
78895;SDS011;68284;59.124;37.910;2023-07-13T10:26:48;9.43;;;4.53;;
78895;SDS011;68284;59.124;37.910;2023-07-13T10:30:01;9.80;;;5.43;;
78895;SDS011;68284;59.124;37.910;2023-07-13T10:32:27;10.00;;;6.50;;
78895;SDS011;68284;59.124;37.910;2023-07-13T10:34:53;9.50;;;7.28;;
78895;SDS011;68284;59.124;37.910;2023-07-13T10:37:22;21.83;;;13.63;;
78895;SDS011;68284;59.124;37.910;2023-07-13T10:39:56;15.95;;;10.75;;
78895;SDS011;68284;59.124;37.910;2023-07-13T10:42:28;12.55;;;8.90;;
78895;SDS011;68284;59.124;37.910;2023-07-13T10:45:12;16.48;;;9.30;;
78895;SDS011;68284;59.124;37.910;2023-07-13T10:47:41;13.45;;;8.35;;
78895;SDS011;68284;59.124;37.910;2023-07-13T10:50:12;18.10;;;7.95;;
78895;SDS011;68284;59.124;37.910;2023-07-13T10:52:48;19.65;;;9.68;;
78895;SDS011;68284;59.124;37.910;2023-07-13T10:55:35;19.27;;;8.18;;
78895;SDS011;68284;59.124;37.910;2023-07-13T10:58:23;17.20;;;8.27;;
78895;SDS011;68284;59.124;37.910;2023-07-13T11:03:33;18.27;;;8.43;;
78895;SDS011;68284;59.124;37.910;2023-07-13T11:06:07;15.35;;;7.45;;
78895;SDS011;68284;59.124;37.910;2023-07-13T11:08:36;12.57;;;5.53;;
78895;SDS011;68284;59.124;37.910;2023-07-13T11:11:32;13.13;;;5.10;;
78895;SDS011;68284;59.124;37.910;2023-07-13T11:19:08;11.43;;;4.72;;
78895;SDS011;68284;59.124;37.910;2023-07-13T11:24:29;11.07;;;4.53;;
78895;SDS011;68284;59.124;37.910;2023-07-13T11:30:13;10.43;;;3.80;;
78895;SDS011;68284;59.124;37.910;2023-07-13T11:32:51;12.77;;;4.30;;
78895;SDS011;68284;59.124;37.910;2023-07-13T11:35:28;11.75;;;5.25;;
78895;SDS011;68284;59.124;37.910;2023-07-13T11:37:55;10.88;;;4.40;;
78895;SDS011;68284;59.124;37.910;2023-07-13T11:40:22;11.40;;;4.88;;
78895;SDS011;68284;59.124;37.910;2023-07-13T11:42:58;10.48;;;4.32;;
78895;SDS011;68284;59.124;37.910;2023-07-13T11:45:27;6.43;;;4.25;;
78895;SDS011;68284;59.124;37.910;2023-07-13T11:47:54;8.52;;;5.35;;
78895;SDS011;68284;59.124;37.910;2023-07-13T11:50:26;8.38;;;4.97;;
78895;SDS011;68284;59.124;37.910;2023-07-13T11:52:53;10.70;;;4.32;;
78895;SDS011;68284;59.124;37.910;2023-07-13T11:55:22;8.20;;;4.03;;
78895;SDS011;68284;59.124;37.910;2023-07-13T11:57:51;11.25;;;4.72;;
78895;SDS011;68284;59.124;37.910;2023-07-13T12:00:23;8.63;;;4.43;;
78895;SDS011;68284;59.124;37.910;2023-07-13T12:02:57;10.52;;;4.75;;
78895;SDS011;68284;59.124;37.910;2023-07-13T12:05:26;10.50;;;4.28;;
78895;SDS011;68284;59.124;37.910;2023-07-13T12:07:53;9.82;;;4.68;;
78895;SDS011;68284;59.124;37.910;2023-07-13T12:10:22;10.63;;;4.68;;
78895;SDS011;68284;59.124;37.910;2023-07-13T12:17:44;8.50;;;4.32;;
78895;SDS011;68284;59.124;37.910;2023-07-13T12:20:23;9.35;;;5.47;;
78895;SDS011;68284;59.124;37.910;2023-07-13T12:23:24;11.35;;;3.55;;
78895;SDS011;68284;59.124;37.910;2023-07-13T12:25:55;10.40;;;4.57;;
78895;SDS011;68284;59.124;37.910;2023-07-13T12:28:32;13.13;;;4.82;;
78895;SDS011;68284;59.124;37.910;2023-07-13T12:31:02;17.73;;;4.85;;
78895;SDS011;68284;59.124;37.910;2023-07-13T12:33:45;11.80;;;4.88;;
78895;SDS011;68284;59.124;37.910;2023-07-13T12:36:12;18.08;;;4.40;;
78895;SDS011;68284;59.124;37.910;2023-07-13T12:38:40;10.30;;;5.05;;
78895;SDS011;68284;59.124;37.910;2023-07-13T12:41:07;11.70;;;4.75;;
78895;SDS011;68284;59.124;37.910;2023-07-13T12:43:36;14.27;;;5.35;;
78895;SDS011;68284;59.124;37.910;2023-07-13T12:48:43;14.13;;;5.50;;
78895;SDS011;68284;59.124;37.910;2023-07-13T12:51:14;17.55;;;5.10;;
78895;SDS011;68284;59.124;37.910;2023-07-13T12:53:41;13.98;;;5.38;;
78895;SDS011;68284;59.124;37.910;2023-07-13T12:56:18;10.75;;;5.10;;
78895;SDS011;68284;59.124;37.910;2023-07-13T12:58:48;12.93;;;5.97;;
78895;SDS011;68284;59.124;37.910;2023-07-13T13:01:23;14.18;;;6.65;;
78895;SDS011;68284;59.124;37.910;2023-07-13T13:03:53;17.80;;;8.32;;
78895;SDS011;68284;59.124;37.910;2023-07-13T13:06:26;22.30;;;9.55;;
78895;SDS011;68284;59.124;37.910;2023-07-13T13:08:55;23.75;;;9.93;;
78895;SDS011;68284;59.124;37.910;2023-07-13T13:11:27;24.27;;;10.20;;
78895;SDS011;68284;59.124;37.910;2023-07-13T13:13:54;24.27;;;9.35;;
78895;SDS011;68284;59.124;37.910;2023-07-13T13:16:29;33.78;;;15.75;;
78895;SDS011;68284;59.124;37.910;2023-07-13T13:19:16;44.72;;;17.83;;
78895;SDS011;68284;59.124;37.910;2023-07-13T13:21:47;43.63;;;17.02;;
78895;SDS011;68284;59.124;37.910;2023-07-13T13:24:16;34.17;;;14.20;;
78895;SDS011;68284;59.124;37.910;2023-07-13T13:26:46;38.30;;;15.45;;
78895;SDS011;68284;59.124;37.910;2023-07-13T13:29:20;44.85;;;18.55;;
78895;SDS011;68284;59.124;37.910;2023-07-13T13:31:50;51.72;;;19.40;;
78895;SDS011;68284;59.124;37.910;2023-07-13T13:34:18;53.95;;;20.95;;
78895;SDS011;68284;59.124;37.910;2023-07-13T13:36:47;53.83;;;20.75;;
78895;SDS011;68284;59.124;37.910;2023-07-13T13:39:25;58.25;;;21.67;;
78895;SDS011;68284;59.124;37.910;2023-07-13T13:41:55;50.97;;;19.45;;
78895;SDS011;68284;59.124;37.910;2023-07-13T13:44:22;53.50;;;20.80;;
78895;SDS011;68284;59.124;37.910;2023-07-13T13:46:53;50.58;;;20.52;;
78895;SDS011;68284;59.124;37.910;2023-07-13T13:49:22;47.97;;;17.70;;
78895;SDS011;68284;59.124;37.910;2023-07-13T13:51:51;26.65;;;12.60;;
78895;SDS011;68284;59.124;37.910;2023-07-13T13:54:19;25.52;;;11.45;;
78895;SDS011;68284;59.124;37.910;2023-07-13T13:56:49;27.95;;;12.90;;
78895;SDS011;68284;59.124;37.910;2023-07-13T13:59:17;35.03;;;13.25;;
78895;SDS011;68284;59.124;37.910;2023-07-13T14:01:44;23.83;;;11.27;;
78895;SDS011;68284;59.124;37.910;2023-07-13T14:04:16;28.75;;;12.13;;
78895;SDS011;68284;59.124;37.910;2023-07-13T14:06:44;28.17;;;12.65;;
78895;SDS011;68284;59.124;37.910;2023-07-13T14:09:13;38.97;;;15.88;;
78895;SDS011;68284;59.124;37.910;2023-07-13T14:11:42;22.08;;;12.10;;
78895;SDS011;68284;59.124;37.910;2023-07-13T14:14:19;20.80;;;11.90;;
78895;SDS011;68284;59.124;37.910;2023-07-13T14:16:48;19.85;;;11.95;;
78895;SDS011;68284;59.124;37.910;2023-07-13T14:19:19;14.52;;;7.63;;
78895;SDS011;68284;59.124;37.910;2023-07-13T14:21:46;20.88;;;10.07;;
78895;SDS011;68284;59.124;37.910;2023-07-13T14:24:15;13.07;;;7.78;;
78895;SDS011;68284;59.124;37.910;2023-07-13T14:26:41;12.68;;;6.05;;
78895;SDS011;68284;59.124;37.910;2023-07-13T14:29:16;16.42;;;8.32;;
78895;SDS011;68284;59.124;37.910;2023-07-13T14:31:45;16.98;;;7.85;;
78895;SDS011;68284;59.124;37.910;2023-07-13T14:34:12;13.60;;;7.18;;
78895;SDS011;68284;59.124;37.910;2023-07-13T14:36:41;9.63;;;5.80;;
78895;SDS011;68284;59.124;37.910;2023-07-13T14:39:12;13.32;;;6.10;;
78895;SDS011;68284;59.124;37.910;2023-07-13T14:41:40;13.18;;;7.25;;
78895;SDS011;68284;59.124;37.910;2023-07-13T14:44:26;12.50;;;6.97;;
78895;SDS011;68284;59.124;37.910;2023-07-13T14:46:55;11.75;;;7.10;;
78895;SDS011;68284;59.124;37.910;2023-07-13T14:52:13;12.35;;;6.32;;
78895;SDS011;68284;59.124;37.910;2023-07-13T14:54:45;14.38;;;7.07;;
78895;SDS011;68284;59.124;37.910;2023-07-13T14:57:18;13.73;;;6.75;;
78895;SDS011;68284;59.124;37.910;2023-07-13T14:59:47;12.10;;;7.68;;
78895;SDS011;68284;59.124;37.910;2023-07-13T15:04:52;15.13;;;5.35;;
78895;SDS011;68284;59.124;37.910;2023-07-13T15:07:21;16.10;;;5.93;;
78895;SDS011;68284;59.124;37.910;2023-07-13T15:09:50;13.68;;;5.18;;
78895;SDS011;68284;59.124;37.910;2023-07-13T15:12:17;12.30;;;4.38;;
78895;SDS011;68284;59.124;37.910;2023-07-13T15:14:44;13.07;;;4.70;;
78895;SDS011;68284;59.124;37.910;2023-07-13T15:19:48;14.70;;;5.65;;
78895;SDS011;68284;59.124;37.910;2023-07-13T15:22:15;15.70;;;4.53;;
78895;SDS011;68284;59.124;37.910;2023-07-13T15:24:41;11.45;;;3.78;;
78895;SDS011;68284;59.124;37.910;2023-07-13T15:27:10;13.80;;;4.00;;
78895;SDS011;68284;59.124;37.910;2023-07-13T15:29:37;15.10;;;5.13;;
78895;SDS011;68284;59.124;37.910;2023-07-13T15:32:12;13.98;;;5.78;;
78895;SDS011;68284;59.124;37.910;2023-07-13T15:34:40;18.20;;;5.97;;
78895;SDS011;68284;59.124;37.910;2023-07-13T15:37:13;18.42;;;5.97;;
78895;SDS011;68284;59.124;37.910;2023-07-13T15:39:41;14.13;;;4.70;;
78895;SDS011;68284;59.124;37.910;2023-07-13T15:42:13;11.10;;;4.32;;
78895;SDS011;68284;59.124;37.910;2023-07-13T15:44:41;10.57;;;5.20;;
78895;SDS011;68284;59.124;37.910;2023-07-13T15:47:11;8.27;;;4.53;;
78895;SDS011;68284;59.124;37.910;2023-07-13T15:49:38;8.50;;;3.40;;
78895;SDS011;68284;59.124;37.910;2023-07-13T15:52:05;8.50;;;3.35;;
78895;SDS011;68284;59.124;37.910;2023-07-13T15:54:43;5.63;;;2.53;;
78895;SDS011;68284;59.124;37.910;2023-07-13T15:57:09;6.60;;;2.88;;
78895;SDS011;68284;59.124;37.910;2023-07-13T15:59:37;7.40;;;3.50;;
78895;SDS011;68284;59.124;37.910;2023-07-13T16:02:11;5.15;;;2.53;;
78895;SDS011;68284;59.124;37.910;2023-07-13T16:04:39;2.55;;;2.00;;
78895;SDS011;68284;59.124;37.910;2023-07-13T16:07:08;3.63;;;2.05;;
78895;SDS011;68284;59.124;37.910;2023-07-13T16:09:36;3.78;;;1.40;;
78895;SDS011;68284;59.124;37.910;2023-07-13T16:12:08;1.70;;;1.27;;
78895;SDS011;68284;59.124;37.910;2023-07-13T16:14:39;2.30;;;1.05;;
78895;SDS011;68284;59.124;37.910;2023-07-13T16:17:12;2.33;;;1.30;;
78895;SDS011;68284;59.124;37.910;2023-07-13T16:19:39;5.03;;;2.30;;
78895;SDS011;68284;59.124;37.910;2023-07-13T16:22:13;3.13;;;1.30;;
78895;SDS011;68284;59.124;37.910;2023-07-13T16:24:42;4.53;;;2.00;;
78895;SDS011;68284;59.124;37.910;2023-07-13T16:27:11;1.55;;;1.10;;
78895;SDS011;68284;59.124;37.910;2023-07-13T16:29:38;1.77;;;0.70;;
78895;SDS011;68284;59.124;37.910;2023-07-13T16:32:12;1.38;;;0.85;;
78895;SDS011;68284;59.124;37.910;2023-07-13T16:34:40;1.30;;;0.73;;
78895;SDS011;68284;59.124;37.910;2023-07-13T16:37:15;1.45;;;0.88;;
78895;SDS011;68284;59.124;37.910;2023-07-13T16:40:02;1.38;;;1.00;;
78895;SDS011;68284;59.124;37.910;2023-07-13T16:42:47;1.38;;;0.52;;
78895;SDS011;68284;59.124;37.910;2023-07-13T16:45:14;1.80;;;0.70;;
78895;SDS011;68284;59.124;37.910;2023-07-13T16:47:41;1.83;;;1.10;;
78895;SDS011;68284;59.124;37.910;2023-07-13T16:53:01;11.55;;;3.75;;